Terminal Aerodrome Forecast
Issued by NWS

Home | Current Version | Previous Version | Text Only | Print | Product List | Glossary On
Versions: 1 2 3 4 5 6 7 8 9 10 11 12 13 14 15
000
FTUS46 KSTO 281100
TAFRDD
TAF
KRDD 281136Z 2812/0112 36005KT P6SM BKN100
     FM282000 02010KT P6SM SCT100 SCT250
     FM010300 36006KT P6SM SCT100 SCT250=

USA.gov is the U.S. government's official web portal to all federal, state and local government web resources and services.